Time;durP1;ratioP1;P1;durP2;ratioP2;P2;SDS_P1;SDS_P2;PMS_P1;PMS_P2;Temp;Humidity;BMP_temperature;BMP_pressure;BME280_temperature;BME280_humidity;BME280_pressure;Samples;Min_cycle;Max_cycle;Signal;HPM_P1;HPM_P2
2023/10/28 00:02:14;;;;;;;5.13;0.93;;;;;;;19.00;61.60;95281.38;10334262;28;20125;-28
2023/10/28 00:07:15;;;;;;;4.30;1.02;;;;;;;18.99;61.41;95294.91;10348316;28;20178;-28
2023/10/28 00:12:15;;;;;;;3.03;0.70;;;;;;;19.02;59.92;95287.22;10341233;28;20033;-29
2023/10/28 00:17:17;;;;;;;1.80;0.80;;;;;;;18.99;60.73;95294.91;10339675;28;20100;-28
2023/10/28 00:22:18;;;;;;;4.75;0.60;;;;;;;18.98;60.92;95310.97;10338535;28;20034;-29
2023/10/28 00:27:18;;;;;;;1.42;0.57;;;;;;;18.98;60.22;95323.66;10329523;28;20524;-28
2023/10/28 00:32:24;;;;;;;3.60;0.90;;;;;;;18.98;60.13;95314.34;10328864;28;20632;-28
2023/10/28 00:37:25;;;;;;;1.15;0.35;;;;;;;18.94;59.53;95319.53;10328814;28;20042;-28
2023/10/28 00:42:26;;;;;;;2.42;1.00;;;;;;;18.96;59.63;95333.00;10336297;28;20040;-28
2023/10/28 00:47:26;;;;;;;2.55;0.80;;;;;;;18.95;59.78;95313.59;10342321;28;20037;-29
2023/10/28 00:52:27;;;;;;;2.27;0.57;;;;;;;18.93;59.65;95321.22;10328888;28;20531;-28
2023/10/28 00:57:28;;;;;;;1.52;0.60;;;;;;;18.91;59.80;95319.63;10326166;28;20289;-28
2023/10/28 01:02:28;;;;;;;1.70;0.80;;;;;;;18.93;59.65;95322.94;10325457;28;20038;-28
2023/10/28 01:07:31;;;;;;;2.15;0.80;;;;;;;18.92;59.49;95321.28;10333962;28;20300;-28
2023/10/28 01:12:32;;;;;;;2.63;0.70;;;;;;;18.91;59.57;95314.56;10329381;28;20096;-28
2023/10/28 01:17:32;;;;;;;2.33;0.90;;;;;;;18.89;59.79;95309.50;10326615;28;20041;-29
2023/10/28 01:22:33;;;;;;;1.40;0.63;;;;;;;18.92;59.52;95304.34;10326159;28;20049;-28
2023/10/28 01:27:33;;;;;;;3.07;0.77;;;;;;;18.92;59.49;95298.47;10324537;28;20046;-29
2023/10/28 01:32:34;;;;;;;1.55;0.60;;;;;;;18.91;59.26;95301.88;10326544;28;20401;-28
2023/10/28 01:37:35;;;;;;;3.33;0.80;;;;;;;18.92;59.33;95298.47;10335017;28;20049;-28
2023/10/28 01:42:35;;;;;;;1.35;0.50;;;;;;;18.91;59.25;95273.97;10342200;28;20385;-28
2023/10/28 01:47:38;;;;;;;2.13;0.95;;;;;;;18.85;59.23;95271.59;10346457;28;20042;-27
2023/10/28 01:52:39;;;;;;;2.67;0.65;;;;;;;18.88;59.46;95277.41;10334075;28;20069;-28
2023/10/28 01:57:40;;;;;;;3.17;0.88;;;;;;;18.89;59.19;95284.16;10336180;28;20088;-29
2023/10/28 02:02:41;;;;;;;4.22;0.80;;;;;;;18.88;58.69;95284.19;10341775;28;20049;-28
2023/10/28 02:07:42;;;;;;;2.10;0.70;;;;;;;18.84;59.01;95285.13;10341085;28;20034;-28
2023/10/28 02:12:42;;;;;;;1.85;0.57;;;;;;;18.85;58.80;95266.53;10343203;28;20485;-28
2023/10/28 02:17:42;;;;;;;2.17;0.80;;;;;;;18.87;58.98;95287.59;10343260;28;20065;-28
2023/10/28 02:22:43;;;;;;;1.73;0.70;;;;;;;18.86;58.98;95288.47;10341931;28;20351;-28
2023/10/28 02:27:44;;;;;;;1.20;0.50;;;;;;;18.86;58.99;95293.53;10343528;28;20057;-29
2023/10/28 02:32:45;;;;;;;1.67;0.60;;;;;;;18.88;58.60;95289.25;10336281;28;20073;-28
2023/10/28 02:37:46;;;;;;;1.20;0.50;;;;;;;18.86;58.78;95283.38;10338741;28;20073;-28
2023/10/28 02:42:47;;;;;;;3.58;0.70;;;;;;;18.85;58.83;95290.16;10336403;28;20045;-28
2023/10/28 02:47:49;;;;;;;3.13;0.87;;;;;;;18.85;58.62;95291.88;10334355;28;20401;-28
2023/10/28 02:52:50;;;;;;;1.05;0.35;;;;;;;18.85;58.67;95296.94;10341058;28;20022;-28
2023/10/28 02:57:52;;;;;;;1.60;0.70;;;;;;;18.78;58.65;95277.66;10335994;28;20057;-30
2023/10/28 03:02:55;;;;;;;2.05;1.00;;;;;;;18.85;58.55;95289.34;10336114;28;20041;-28
2023/10/28 03:07:56;;;;;;;1.42;0.55;;;;;;;18.84;58.21;95300.34;10335380;28;20045;-28
2023/10/28 03:12:56;;;;;;;1.63;0.50;;;;;;;18.83;58.55;95283.47;10336307;28;20382;-28
2023/10/28 03:17:56;;;;;;;0.93;0.60;;;;;;;18.83;58.65;95278.41;10366929;28;20299;-28
2023/10/28 03:22:57;;;;;;;1.33;0.60;;;;;;;18.83;58.48;95289.38;10341032;28;20387;-28
2023/10/28 03:28:00;;;;;;;3.60;0.97;;;;;;;18.81;58.51;95280.13;10346003;28;20408;-29
2023/10/28 03:33:00;;;;;;;1.73;0.90;;;;;;;18.82;58.22;95275.03;10336951;28;20378;-28
2023/10/28 03:38:01;;;;;;;1.60;0.60;;;;;;;18.82;58.49;95269.13;10340728;28;20113;-28
2023/10/28 03:43:02;;;;;;;4.15;0.80;;;;;;;18.82;58.71;95261.53;10341348;28;20044;-28
2023/10/28 03:48:02;;;;;;;1.83;0.93;;;;;;;18.82;58.30;95266.59;10356408;28;20088;-29
2023/10/28 03:53:03;;;;;;;3.05;0.73;;;;;;;18.96;57.31;95274.69;10343846;28;20033;-28
2023/10/28 03:58:03;;;;;;;2.17;0.60;;;;;;;18.99;56.47;95275.44;10350002;28;20038;-28
2023/10/28 04:03:04;;;;;;;2.40;0.77;;;;;;;19.02;56.79;95270.28;10345241;28;20033;-29
2023/10/28 04:08:05;;;;;;;0.55;0.32;;;;;;;19.01;56.21;95281.31;10335011;28;20025;-29
2023/10/28 04:13:05;;;;;;;1.70;0.47;;;;;;;19.01;56.02;95273.69;10340296;28;20048;-29
2023/10/28 04:18:06;;;;;;;1.20;0.43;;;;;;;19.03;56.29;95278.75;10331369;28;20029;-28
2023/10/28 04:23:06;;;;;;;1.27;0.53;;;;;;;19.03;56.24;95278.75;10339455;28;20104;-29
2023/10/28 04:28:07;;;;;;;1.75;0.60;;;;;;;19.04;55.91;95273.63;10337430;28;20038;-28
2023/10/28 04:33:07;;;;;;;1.42;0.60;;;;;;;19.05;55.92;95274.44;10345072;28;20033;-28
2023/10/28 04:38:08;;;;;;;1.40;0.50;;;;;;;19.07;55.74;95280.31;10336799;28;20111;-28
2023/10/28 04:43:08;;;;;;;2.13;0.70;;;;;;;19.05;55.91;95284.59;10341288;28;20045;-28
2023/10/28 04:48:15;;;;;;;1.73;0.50;;;;;;;19.07;55.80;95275.25;10348104;28;20141;-28
2023/10/28 04:53:15;;;;;;;1.50;0.60;;;;;;;19.05;55.97;95269.38;10341220;28;20342;-29
2023/10/28 04:58:16;;;;;;;1.47;0.60;;;;;;;19.05;55.04;95271.91;10329112;28;20424;-28
2023/10/28 05:03:17;;;;;;;2.22;0.60;;;;;;;19.08;55.68;95274.41;10345191;28;20408;-30
2023/10/28 05:08:17;;;;;;;1.80;0.70;;;;;;;19.10;55.69;95270.09;10342621;28;20034;-30
2023/10/28 05:13:17;;;;;;;1.67;0.60;;;;;;;19.09;55.76;95271.81;10328646;28;20295;-29
2023/10/28 05:18:18;;;;;;;1.60;0.70;;;;;;;19.10;56.06;95270.09;10338779;28;20483;-29
2023/10/28 05:23:19;;;;;;;2.17;0.67;;;;;;;19.12;55.31;95275.97;10343591;28;20701;-29
2023/10/28 05:28:22;;;;;;;1.77;0.65;;;;;;;19.13;55.72;95273.41;10329249;28;20297;-28
2023/10/28 05:33:23;;;;;;;1.15;0.40;;;;;;;19.14;56.03;95284.38;10331264;28;20040;-29
2023/10/28 05:38:23;;;;;;;1.90;0.70;;;;;;;19.12;56.17;95286.13;10330929;28;20030;-29
2023/10/28 05:43:23;;;;;;;1.73;0.30;;;;;;;19.10;55.86;95300.53;10339782;28;20049;-29
2023/10/28 05:48:24;;;;;;;1.87;0.67;;;;;;;19.10;56.47;95303.91;10342981;28;20034;-28
2023/10/28 05:53:24;;;;;;;1.47;0.70;;;;;;;19.12;55.84;95317.41;10335264;28;20030;-28
2023/10/28 05:58:25;;;;;;;3.33;0.70;;;;;;;19.12;55.99;95321.63;10330922;28;20293;-28
2023/10/28 06:03:26;;;;;;;0.70;0.40;;;;;;;19.14;55.99;95314.81;10339928;28;20494;-28
2023/10/28 06:08:27;;;;;;;1.17;0.60;;;;;;;19.13;56.06;95308.91;10332742;28;20030;-28
2023/10/28 06:13:28;;;;;;;0.80;0.43;;;;;;;19.13;55.73;95305.53;10329872;28;20116;-28
2023/10/28 06:18:29;;;;;;;2.85;0.77;;;;;;;19.14;55.47;95324.94;10331373;28;20437;-28
2023/10/28 06:23:30;;;;;;;4.53;0.70;;;;;;;19.15;55.05;95324.94;10344862;28;20039;-28
2023/10/28 06:28:30;;;;;;;3.47;0.93;;;;;;;19.18;54.93;95331.63;10340353;28;20097;-28
2023/10/28 06:33:30;;;;;;;1.70;0.90;;;;;;;19.16;54.84;95330.84;10347467;28;20042;-28
2023/10/28 06:38:31;;;;;;;2.50;0.70;;;;;;;19.17;54.35;95335.84;10337384;28;20035;-28
2023/10/28 06:43:31;;;;;;;2.97;0.73;;;;;;;19.17;54.30;95335.03;10298783;28;20308;-28
2023/10/28 06:48:33;;;;;;;2.22;0.80;;;;;;;19.18;54.53;95341.78;10295945;28;20046;-28
2023/10/28 06:53:33;;;;;;;1.17;0.50;;;;;;;19.18;53.99;95346.84;10285248;28;20061;-29
2023/10/28 06:58:33;;;;;;;1.47;0.70;;;;;;;19.20;53.76;95340.06;10323863;28;20045;-28
2023/10/28 07:03:34;;;;;;;1.83;0.75;;;;;;;19.15;54.02;95349.44;10339904;28;20109;-29
2023/10/28 07:08:36;;;;;;;2.08;0.70;;;;;;;19.17;53.93;95361.22;10336883;28;20084;-28
2023/10/28 07:13:37;;;;;;;2.42;0.73;;;;;;;19.18;53.65;95372.22;10341306;28;20501;-28
2023/10/28 07:18:37;;;;;;;2.28;0.50;;;;;;;19.16;54.10;95368.91;10335945;28;20025;-29
2023/10/28 07:23:38;;;;;;;2.15;0.73;;;;;;;19.16;56.67;95386.66;10341564;28;20070;-29
2023/10/28 07:28:39;;;;;;;3.80;0.90;;;;;;;19.16;55.07;95395.09;10343954;28;20104;-29
2023/10/28 07:33:39;;;;;;;11.40;1.00;;;;;;;19.15;56.41;95387.50;10360626;28;20037;-29
2023/10/28 07:38:40;;;;;;;2.97;1.00;;;;;;;19.17;54.81;95375.63;10353005;28;20053;-28
2023/10/28 07:43:41;;;;;;;3.92;1.10;;;;;;;19.24;55.42;95398.31;10359773;28;20084;-28
2023/10/28 07:48:41;;;;;;;4.23;1.40;;;;;;;19.22;54.99;95389.91;10359101;28;20039;-28
2023/10/28 07:53:41;;;;;;;3.37;1.20;;;;;;;19.25;55.15;95399.16;10335401;28;20385;-31
2023/10/28 07:58:43;;;;;;;3.17;0.90;;;;;;;19.23;56.87;95416.09;10330955;28;20440;-29
2023/10/28 08:03:46;;;;;;;9.30;1.00;;;;;;;19.26;56.37;95418.56;10347020;28;20060;-30
2023/10/28 08:08:47;;;;;;;14.65;1.45;;;;;;;19.25;57.00;95407.59;10348139;28;20045;-28
2023/10/28 08:13:48;;;;;;;4.32;1.20;;;;;;;19.26;57.04;95406.72;10349330;28;20034;-28
2023/10/28 08:18:49;;;;;;;7.00;1.05;;;;;;;19.25;58.31;95394.06;10341876;28;20034;-30
2023/10/28 08:23:50;;;;;;;4.68;1.30;;;;;;;19.22;59.76;95407.66;10340729;28;20481;-28
2023/10/28 08:28:50;;;;;;;5.03;1.67;;;;;;;19.17;59.16;95403.53;10343753;28;20034;-28
2023/10/28 08:33:52;;;;;;;8.27;1.70;;;;;;;19.26;58.39;95405.88;10349032;28;20022;-28
2023/10/28 08:38:52;;;;;;;3.72;2.10;;;;;;;19.24;58.93;95398.31;10346611;28;20030;-29
2023/10/28 08:43:53;;;;;;;6.10;2.03;;;;;;;19.24;58.51;95397.50;10348366;28;20034;-28
2023/10/28 08:48:57;;;;;;;5.97;1.50;;;;;;;19.26;59.01;95404.16;10338868;28;20168;-28
2023/10/28 08:54:02;;;;;;;5.75;1.83;;;;;;;19.25;60.19;95401.69;10346778;28;20029;-27
2023/10/28 08:59:03;;;;;;;8.57;2.15;;;;;;;19.22;59.16;95399.22;10355042;28;20423;-27
2023/10/28 09:04:06;;;;;;;8.27;2.22;;;;;;;19.22;56.73;95404.28;10351071;28;20062;-26
2023/10/28 09:09:09;;;;;;;6.03;1.88;;;;;;;19.20;57.90;95411.09;10346222;28;20123;-27
2023/10/28 09:14:10;;;;;;;4.03;1.63;;;;;;;19.17;58.50;95395.94;10352848;28;20087;-27
2023/10/28 09:19:21;;;;;;;4.17;1.60;;;;;;;19.18;58.78;95395.88;10346273;28;20091;-27
2023/10/28 09:24:23;;;;;;;7.18;1.73;;;;;;;19.22;58.91;95399.22;10342395;28;20301;-28
2023/10/28 09:29:24;;;;;;;5.40;1.95;;;;;;;19.22;59.05;95405.13;10348704;28;20038;-27
2023/10/28 09:34:25;;;;;;;2.47;1.13;;;;;;;19.22;59.70;95406.81;10354361;28;20527;-27
2023/10/28 09:39:26;;;;;;;6.07;1.43;;;;;;;19.21;59.25;95402.63;10346568;28;20042;-27
2023/10/28 09:44:27;;;;;;;3.88;1.40;;;;;;;19.21;59.71;95402.63;10340762;28;20033;-27
2023/10/28 09:49:30;;;;;;;5.05;1.67;;;;;;;19.19;59.93;95407.72;10344157;28;20030;-27
2023/10/28 09:54:34;;;;;;;3.38;1.60;;;;;;;19.18;60.33;95410.28;10336601;28;20038;-27
2023/10/28 09:59:38;;;;;;;4.85;1.10;;;;;;;19.14;60.57;95424.72;10347328;28;20602;-27
2023/10/28 10:04:49;;;;;;;5.18;1.23;;;;;;;19.13;60.85;95419.69;10374744;28;20044;-27
2023/10/28 10:09:49;;;;;;;4.47;0.95;;;;;;;19.13;60.81;95425.59;10369083;28;20477;-28
2023/10/28 10:14:51;;;;;;;4.03;1.42;;;;;;;19.17;60.18;95439.06;10352887;28;20026;-27
2023/10/28 10:19:52;;;;;;;2.33;1.13;;;;;;;19.17;60.78;95432.25;10373969;28;20535;-27
2023/10/28 10:24:52;;;;;;;5.22;1.17;;;;;;;19.14;61.07;95432.34;10352657;28;20492;-27
2023/10/28 10:30:03;;;;;;;8.53;1.40;;;;;;;19.17;59.40;95429.72;10347628;28;20049;-28
2023/10/28 10:35:10;;;;;;;7.10;1.15;;;;;;;19.18;60.43;95443.25;10354731;28;20294;-27
2023/10/28 10:40:12;;;;;;;4.53;1.05;;;;;;;19.19;60.29;95430.56;10355746;28;20054;-30
2023/10/28 10:45:14;;;;;;;4.80;1.20;;;;;;;19.17;60.04;95416.22;10354393;28;20034;-30
2023/10/28 10:50:15;;;;;;;3.22;1.08;;;;;;;19.15;58.49;95428.94;10343889;28;20046;-29
2023/10/28 10:55:22;;;;;;;4.32;1.10;;;;;;;19.18;58.93;95411.09;10348197;28;20042;-29
2023/10/28 11:00:23;;;;;;;2.47;1.00;;;;;;;19.20;59.18;95403.50;10346412;28;20042;-28
2023/10/28 11:05:28;;;;;;;4.35;1.15;;;;;;;19.20;59.25;95408.56;10346355;28;20125;-28
2023/10/28 11:10:28;;;;;;;5.53;1.05;;;;;;;19.25;58.95;95409.31;10345024;28;20125;-27
2023/10/28 11:15:33;;;;;;;3.07;1.00;;;;;;;19.22;57.88;95397.50;10347199;28;20651;-27
2023/10/28 11:20:34;;;;;;;7.90;2.17;;;;;;;19.25;58.16;95389.00;10356074;28;20702;-28
2023/10/28 11:25:35;;;;;;;4.18;1.00;;;;;;;19.24;58.46;95382.28;10345116;28;20471;-28
2023/10/28 11:30:37;;;;;;;4.43;1.60;;;;;;;19.21;58.90;95387.41;10342523;28;20034;-28
2023/10/28 11:35:39;;;;;;;6.88;1.30;;;;;;;19.22;58.47;95378.91;10345766;28;20061;-28
2023/10/28 11:40:39;;;;;;;7.05;1.52;;;;;;;19.20;59.33;95373.03;10353381;28;20045;-28
2023/10/28 11:45:40;;;;;;;3.87;0.97;;;;;;;19.20;58.85;95371.34;10341442;28;20030;-28
2023/10/28 11:50:40;;;;;;;4.13;1.43;;;;;;;19.14;58.98;95347.78;10341111;28;20310;-28
2023/10/28 11:55:40;;;;;;;8.47;1.30;;;;;;;19.19;59.05;95348.56;10336677;28;20558;-28
2023/10/28 12:00:41;;;;;;;4.70;1.23;;;;;;;19.19;59.53;95338.41;10350987;28;20044;-27
2023/10/28 12:05:41;;;;;;;8.25;1.75;;;;;;;19.19;59.46;95331.59;10345617;28;20040;-28
2023/10/28 12:10:46;;;;;;;4.53;1.40;;;;;;;19.17;59.30;95330.78;10349918;28;20101;-28
2023/10/28 12:15:46;;;;;;;7.28;1.48;;;;;;;19.19;59.46;95328.25;10341384;28;20131;-28
2023/10/28 12:20:48;;;;;;;5.47;1.33;;;;;;;19.18;59.79;95329.91;10342342;28;20041;-28
2023/10/28 12:25:48;;;;;;;4.25;1.15;;;;;;;19.17;59.33;95310.50;10339230;28;20372;-28
2023/10/28 12:30:48;;;;;;;2.17;0.90;;;;;;;19.19;59.00;95308.78;10341890;28;20411;-27
2023/10/28 12:35:49;;;;;;;2.93;1.57;;;;;;;19.21;58.19;95311.28;10349391;28;20080;-27
2023/10/28 12:40:49;;;;;;;3.03;1.20;;;;;;;19.22;58.53;95312.94;10332491;28;20035;-28
2023/10/28 12:45:50;;;;;;;3.58;1.30;;;;;;;19.22;58.98;95318.03;10351295;28;20061;-28
2023/10/28 12:50:50;;;;;;;3.40;1.05;;;;;;;19.21;58.82;95316.34;10368073;28;20039;-28
2023/10/28 12:55:51;;;;;;;2.00;0.80;;;;;;;19.21;58.97;95321.44;10367922;28;20041;-27
2023/10/28 13:00:53;;;;;;;2.45;1.00;;;;;;;19.17;59.07;95310.50;10357121;28;20870;-28
2023/10/28 13:05:55;;;;;;;4.70;0.95;;;;;;;19.19;58.84;95313.03;10366972;28;20120;-26
2023/10/28 13:10:56;;;;;;;2.10;0.70;;;;;;;19.21;58.93;95317.19;10362606;28;20045;-28
2023/10/28 13:15:56;;;;;;;3.20;1.00;;;;;;;19.20;58.69;95319.75;10345066;28;20041;-28
2023/10/28 13:21:00;;;;;;;4.30;0.70;;;;;;;19.21;58.69;95313.81;10348860;28;20133;-28
2023/10/28 13:26:00;;;;;;;4.90;1.25;;;;;;;19.13;59.69;95325.81;10360951;28;20072;-29
2023/10/28 13:31:00;;;;;;;3.50;0.80;;;;;;;19.18;59.11;95326.56;10341077;28;20114;-28
2023/10/28 13:36:02;;;;;;;5.60;1.20;;;;;;;19.10;60.70;95334.34;10339342;28;20109;-28
2023/10/28 13:41:03;;;;;;;3.90;1.02;;;;;;;19.13;60.53;95338.50;10348687;28;20038;-28
2023/10/28 13:46:04;;;;;;;5.47;1.08;;;;;;;19.13;60.47;95341.03;10342251;28;21252;-29
2023/10/28 13:51:04;;;;;;;5.43;1.10;;;;;;;19.09;59.61;95342.00;10339395;28;20058;-29
2023/10/28 13:56:06;;;;;;;3.72;0.80;;;;;;;19.09;60.61;95337.75;10342043;28;20038;-29
2023/10/28 14:01:07;;;;;;;2.90;0.90;;;;;;;19.08;60.62;95332.72;10343196;28;20516;-30
2023/10/28 14:06:18;;;;;;;3.10;1.05;;;;;;;19.08;60.50;95341.16;10339666;28;20042;-28
2023/10/28 14:11:22;;;;;;;3.03;0.80;;;;;;;19.07;60.41;95353.88;10351147;28;20096;-29
2023/10/28 14:16:24;;;;;;;7.35;0.88;;;;;;;19.12;59.20;95367.28;10352530;28;20475;-28
2023/10/28 14:21:24;;;;;;;8.95;1.30;;;;;;;19.14;59.15;95366.38;10345097;28;20101;-28
2023/10/28 14:26:25;;;;;;;4.45;0.88;;;;;;;19.10;59.33;95374.09;10337450;28;20764;-28
2023/10/28 14:31:27;;;;;;;6.38;1.25;;;;;;;19.16;58.87;95384.94;10342426;28;20041;-27
2023/10/28 14:36:28;;;;;;;6.28;1.17;;;;;;;19.10;59.41;95382.53;10355645;28;20038;-28
2023/10/28 14:41:33;;;;;;;3.13;1.30;;;;;;;19.15;59.03;95390.88;10345239;28;20628;-28
2023/10/28 14:46:34;;;;;;;7.43;1.30;;;;;;;19.17;58.97;95385.78;10357162;28;20033;-28
2023/10/28 14:51:34;;;;;;;4.20;0.93;;;;;;;19.21;58.84;95378.09;10352096;28;20112;-28
2023/10/28 14:56:34;;;;;;;4.63;1.10;;;;;;;19.22;59.30;95378.91;10347932;28;20297;-27
2023/10/28 15:01:35;;;;;;;8.20;1.00;;;;;;;19.18;59.09;95357.00;10339913;28;20046;-28
2023/10/28 15:06:37;;;;;;;6.97;1.23;;;;;;;19.24;58.80;95356.91;10330812;28;20030;-27
2023/10/28 15:11:37;;;;;;;3.03;1.00;;;;;;;19.23;58.60;95360.28;10331088;28;20113;-28
2023/10/28 15:16:38;;;;;;;5.43;1.42;;;;;;;19.25;60.18;95358.56;10337951;28;20096;-27
2023/10/28 15:21:38;;;;;;;5.05;2.03;;;;;;;19.23;60.66;95350.13;10332271;28;20117;-27
2023/10/28 15:26:39;;;;;;;6.83;1.47;;;;;;;19.22;59.61;95353.53;10325132;28;20116;-28
2023/10/28 15:31:39;;;;;;;7.05;1.70;;;;;;;19.05;61.73;95360.69;10347770;28;20032;-27
2023/10/28 15:36:40;;;;;;;14.40;1.77;;;;;;;18.92;62.35;95366.94;10348359;28;20038;-28
2023/10/28 15:41:40;;;;;;;6.53;2.00;;;;;;;19.06;62.62;95357.28;10353257;28;20044;-28
2023/10/28 15:46:42;;;;;;;14.68;2.22;;;;;;;19.07;63.44;95369.09;10342459;28;20034;-28
2023/10/28 15:51:42;;;;;;;8.93;2.78;;;;;;;19.07;63.20;95366.56;10355877;28;20112;-28
2023/10/28 15:56:44;;;;;;;10.87;2.07;;;;;;;19.02;62.01;95365.84;10361423;28;20044;-28
2023/10/28 16:01:44;;;;;;;10.27;2.50;;;;;;;19.04;63.56;95354.81;10354352;28;20300;-28
2023/10/28 16:06:45;;;;;;;13.97;3.60;;;;;;;19.02;63.16;95360.78;10348416;28;20485;-27
2023/10/28 16:11:45;;;;;;;9.90;3.47;;;;;;;18.99;63.01;95361.66;10349343;28;20380;-28
2023/10/28 16:16:46;;;;;;;8.03;2.10;;;;;;;19.03;62.59;95364.97;10350868;28;20048;-28
2023/10/28 16:21:49;;;;;;;8.23;2.40;;;;;;;19.01;63.30;95375.13;10360146;28;20284;-28
2023/10/28 16:26:49;;;;;;;7.25;2.42;;;;;;;19.05;62.75;95371.69;10356605;28;20113;-29
2023/10/28 16:31:50;;;;;;;6.32;2.03;;;;;;;19.02;62.85;95370.91;10360855;28;20641;-28
2023/10/28 16:36:50;;;;;;;4.30;1.63;;;;;;;19.03;62.72;95367.50;10361328;28;20091;-29
2023/10/28 16:41:51;;;;;;;5.10;1.90;;;;;;;19.01;62.88;95365.00;10364254;28;20046;-28
2023/10/28 16:46:52;;;;;;;4.72;2.38;;;;;;;19.02;63.40;95381.88;10340338;28;20308;-29
2023/10/28 16:51:52;;;;;;;6.33;2.63;;;;;;;19.06;61.85;95367.44;10352790;28;20420;-28
2023/10/28 16:56:52;;;;;;;9.17;4.57;;;;;;;19.08;61.87;95371.59;10347557;28;20029;-28
2023/10/28 17:01:53;;;;;;;10.57;4.37;;;;;;;19.12;62.22;95367.28;10343053;28;20124;-29
2023/10/28 17:06:53;;;;;;;11.63;6.27;;;;;;;19.14;62.37;95375.69;10354341;28;20296;-28
2023/10/28 17:11:53;;;;;;;14.40;7.27;;;;;;;19.13;62.76;95379.09;10352381;28;20712;-28
2023/10/28 17:16:54;;;;;;;17.03;7.73;;;;;;;19.12;62.62;95390.13;10340192;28;20033;-29
2023/10/28 17:21:54;;;;;;;16.00;8.17;;;;;;;19.10;62.66;95389.31;10348902;28;20394;-28
2023/10/28 17:26:55;;;;;;;14.83;7.97;;;;;;;19.06;62.64;95397.88;10328085;28;20046;-28
2023/10/28 17:31:57;;;;;;;17.58;8.73;;;;;;;19.04;62.46;95405.53;10336691;28;20456;-28
2023/10/28 17:36:57;;;;;;;12.23;7.13;;;;;;;19.04;61.76;95407.22;10345993;28;20029;-28
2023/10/28 17:41:57;;;;;;;14.33;7.27;;;;;;;19.13;61.34;95410.38;10350283;28;20041;-29
2023/10/28 17:46:58;;;;;;;16.67;9.37;;;;;;;19.11;62.96;95401.13;10354321;28;20042;-30
2023/10/28 17:51:58;;;;;;;19.42;9.35;;;;;;;19.11;62.84;95396.06;10366784;28;20048;-28
2023/10/28 17:57:00;;;;;;;16.20;8.80;;;;;;;19.06;62.93;95400.41;10343245;28;20042;-28
2023/10/28 18:02:01;;;;;;;14.40;8.07;;;;;;;19.08;63.02;95401.22;10356995;28;20038;-28
2023/10/28 18:07:01;;;;;;;20.25;8.45;;;;;;;19.05;62.83;95375.91;10366749;28;20117;-29
2023/10/28 18:12:04;;;;;;;20.23;8.97;;;;;;;19.12;62.29;95378.28;10353899;28;20030;-28
2023/10/28 18:17:05;;;;;;;17.58;7.93;;;;;;;19.17;61.71;95380.72;10364348;28;20037;-28
2023/10/28 18:22:06;;;;;;;12.95;7.05;;;;;;;19.19;61.63;95379.00;10360988;28;20052;-29
2023/10/28 18:27:06;;;;;;;14.43;7.35;;;;;;;19.18;61.35;95387.44;10370235;28;20435;-29
2023/10/28 18:32:09;;;;;;;13.50;7.35;;;;;;;19.17;61.32;95385.78;10352110;28;20040;-31
2023/10/28 18:37:10;;;;;;;11.45;7.00;;;;;;;19.18;61.50;95383.19;10365454;28;20539;-29
2023/10/28 18:42:11;;;;;;;13.00;7.03;;;;;;;19.19;60.90;95382.34;10362032;28;20049;-28
2023/10/28 18:47:12;;;;;;;11.65;7.07;;;;;;;19.19;60.98;95381.53;10365055;28;20038;-28
2023/10/28 18:52:12;;;;;;;11.73;5.97;;;;;;;19.18;61.26;95367.16;10355330;28;20462;-28
2023/10/28 18:57:15;;;;;;;13.20;7.07;;;;;;;19.22;61.09;95381.44;10361417;28;20034;-29
2023/10/28 19:02:15;;;;;;;13.13;5.97;;;;;;;19.21;60.98;95372.16;10351233;28;20379;-28
2023/10/28 19:07:16;;;;;;;9.00;5.57;;;;;;;19.21;60.57;95370.47;10370213;28;20412;-28
2023/10/28 19:12:16;;;;;;;14.27;5.90;;;;;;;19.21;60.75;95370.47;10365399;28;20451;-28
2023/10/28 19:17:17;;;;;;;9.07;4.87;;;;;;;19.19;60.98;95358.69;10362047;28;20498;-28
2023/10/28 19:22:20;;;;;;;9.13;5.05;;;;;;;19.24;61.33;95367.03;10355563;28;20042;-28
2023/10/28 19:27:20;;;;;;;11.13;5.68;;;;;;;19.23;61.36;95356.03;10365114;28;20037;-28
2023/10/28 19:32:21;;;;;;;13.25;5.60;;;;;;;19.22;61.20;95351.00;10349465;28;20042;-28
2023/10/28 19:37:21;;;;;;;8.57;4.35;;;;;;;19.21;61.45;95344.25;10349489;28;20042;-28
2023/10/28 19:42:24;;;;;;;12.13;5.30;;;;;;;19.22;61.28;95343.38;10353044;28;20042;-29
2023/10/28 19:47:24;;;;;;;8.68;5.03;;;;;;;19.22;60.60;95339.16;10350284;28;20070;-28
2023/10/28 19:52:27;;;;;;;8.20;4.82;;;;;;;19.22;61.34;95336.63;10352700;28;20670;-28
2023/10/28 19:57:27;;;;;;;7.63;4.68;;;;;;;19.23;61.18;95339.97;10356868;28;20069;-28
2023/10/28 20:02:28;;;;;;;7.20;4.73;;;;;;;19.25;61.02;95335.72;10365380;28;20054;-28
2023/10/28 20:07:29;;;;;;;9.07;4.40;;;;;;;19.25;60.87;95323.03;10350465;28;20297;-28
2023/10/28 20:12:30;;;;;;;8.35;3.90;;;;;;;19.24;60.88;95321.38;10363567;28;20514;-29
2023/10/28 20:17:30;;;;;;;13.15;5.10;;;;;;;19.22;60.99;95320.56;10363038;28;20037;-29
2023/10/28 20:22:31;;;;;;;7.40;4.25;;;;;;;19.21;61.01;95306.22;10354726;28;20599;-28
2023/10/28 20:27:32;;;;;;;7.47;4.47;;;;;;;19.20;61.08;95310.47;10357700;28;20052;-29
2023/10/28 20:32:33;;;;;;;7.18;4.32;;;;;;;19.20;60.89;95324.84;10364549;28;20037;-29
2023/10/28 20:37:33;;;;;;;7.80;3.50;;;;;;;19.19;61.07;95320.63;10354214;28;20064;-29
2023/10/28 20:42:34;;;;;;;6.07;3.50;;;;;;;19.19;60.87;95307.97;10364652;28;20420;-29
2023/10/28 20:47:37;;;;;;;4.68;3.40;;;;;;;19.22;60.36;95308.72;10351519;28;20374;-28
2023/10/28 20:52:37;;;;;;;7.28;4.05;;;;;;;19.22;60.68;95301.09;10361412;28;20026;-28
2023/10/28 20:57:38;;;;;;;6.90;3.40;;;;;;;19.23;60.59;95310.38;10353642;28;20026;-28
2023/10/28 21:02:38;;;;;;;5.03;3.37;;;;;;;19.20;60.93;95299.47;10354115;28;20033;-28
2023/10/28 21:07:38;;;;;;;5.17;3.77;;;;;;;19.21;60.42;95288.44;10357549;28;20034;-28
2023/10/28 21:12:39;;;;;;;7.00;3.65;;;;;;;19.19;61.32;95291.00;10352507;28;20027;-29
2023/10/28 21:17:39;;;;;;;6.50;3.40;;;;;;;19.17;61.39;95307.13;10353414;28;20125;-28
2023/10/28 21:22:40;;;;;;;6.72;2.90;;;;;;;19.16;61.67;95308.00;10354690;28;20026;-29
2023/10/28 21:27:40;;;;;;;5.80;3.07;;;;;;;19.14;61.96;95318.19;10352516;28;20073;-29
2023/10/28 21:32:41;;;;;;;9.60;3.50;;;;;;;19.13;61.53;95323.28;10353197;28;20493;-30
2023/10/28 21:37:41;;;;;;;6.77;3.40;;;;;;;19.13;61.73;95308.06;10352961;28;20092;-28
2023/10/28 21:42:42;;;;;;;8.23;3.53;;;;;;;19.12;62.10;95308.94;10350565;28;20443;-29
2023/10/28 21:47:43;;;;;;;6.45;2.90;;;;;;;19.13;61.58;95313.16;10355086;28;20030;-28
2023/10/28 21:52:43;;;;;;;9.63;3.80;;;;;;;19.12;61.99;95311.47;10371383;28;20030;-28
2023/10/28 21:57:44;;;;;;;5.07;2.83;;;;;;;19.10;62.18;95314.03;10366478;28;20116;-28
2023/10/28 22:02:44;;;;;;;6.97;3.47;;;;;;;19.12;61.99;95306.41;10363220;28;20773;-28
2023/10/28 22:07:44;;;;;;;9.10;3.27;;;;;;;19.11;62.07;95307.28;10368244;28;20030;-29
2023/10/28 22:12:46;;;;;;;5.53;3.65;;;;;;;19.10;62.24;95308.97;10374459;28;20026;-28
2023/10/28 22:17:46;;;;;;;6.22;2.80;;;;;;;19.09;62.49;95301.41;10362777;28;20026;-29
2023/10/28 22:22:48;;;;;;;6.73;2.90;;;;;;;19.11;62.17;95299.69;10355376;28;20030;-28
2023/10/28 22:27:48;;;;;;;5.85;2.83;;;;;;;19.09;62.12;95302.25;10373887;28;20038;-29
2023/10/28 22:32:49;;;;;;;7.57;3.30;;;;;;;19.10;62.20;95305.63;10361331;28;20029;-28
2023/10/28 22:37:49;;;;;;;9.43;3.65;;;;;;;19.08;62.36;95310.72;10372014;28;20408;-28
2023/10/28 22:42:50;;;;;;;9.20;3.73;;;;;;;19.10;62.34;95316.59;10373511;28;20099;-28
2023/10/28 22:47:51;;;;;;;5.38;2.45;;;;;;;19.07;62.34;95308.22;10372462;28;20033;-29
2023/10/28 22:52:52;;;;;;;8.10;3.53;;;;;;;19.04;62.71;95308.28;10365031;28;20515;-28
2023/10/28 22:57:52;;;;;;;6.77;3.40;;;;;;;19.08;62.37;95304.84;10372490;28;20038;-29
2023/10/28 23:02:53;;;;;;;6.87;2.93;;;;;;;19.07;62.43;95301.44;10360753;28;20034;-29
2023/10/28 23:07:54;;;;;;;7.93;3.28;;;;;;;19.06;62.39;95291.34;10372207;28;20061;-28
2023/10/28 23:12:54;;;;;;;8.10;3.00;;;;;;;19.06;62.53;95301.47;10360354;28;20032;-29
2023/10/28 23:17:55;;;;;;;7.87;3.50;;;;;;;19.04;62.63;95311.69;10371700;28;20034;-29